createdAt,value
2023-04-22T00:00:28.921Z,3.30
2023-04-22T00:02:56.584Z,2.33
2023-04-22T00:05:24.443Z,3.08
2023-04-22T00:07:52.106Z,2.28
2023-04-22T00:10:19.770Z,2.60
2023-04-22T00:12:47.279Z,2.17
2023-04-22T00:15:14.916Z,2.33
2023-04-22T00:17:42.851Z,2.30
2023-04-22T00:20:11.405Z,2.90
2023-04-22T00:22:39.061Z,2.55
2023-04-22T00:25:07.123Z,2.25
2023-04-22T00:27:34.773Z,2.72
2023-04-22T00:30:02.352Z,2.67
2023-04-22T00:32:29.969Z,2.60
2023-04-22T00:34:57.740Z,1.92
2023-04-22T00:37:25.849Z,2.08
2023-04-22T00:39:53.423Z,2.20
2023-04-22T00:42:21.961Z,2.38
2023-04-22T00:44:51.997Z,2.65
2023-04-22T00:47:20.867Z,2.65
2023-04-22T00:49:50.198Z,2.58
2023-04-22T00:52:17.792Z,2.58
2023-04-22T00:54:46.859Z,2.42
2023-04-22T00:57:14.695Z,2.80
2023-04-22T00:59:43.122Z,2.40
2023-04-22T01:02:10.825Z,2.30
2023-04-22T01:04:39.105Z,2.28
2023-04-22T01:07:06.918Z,2.22
2023-04-22T01:09:35.551Z,8.98
2023-04-22T01:12:03.114Z,2.40
2023-04-22T01:14:30.749Z,2.25
2023-04-22T01:16:58.510Z,2.42
2023-04-22T01:19:26.567Z,2.30
2023-04-22T01:21:55.876Z,2.05
2023-04-22T01:24:23.486Z,2.33
2023-04-22T01:26:51.237Z,2.55
2023-04-22T01:29:18.836Z,3.08
2023-04-22T01:31:47.199Z,2.42
2023-04-22T01:34:14.867Z,2.65
2023-04-22T01:36:42.449Z,2.20
2023-04-22T01:39:10.101Z,2.20
2023-04-22T01:41:37.732Z,2.50
2023-04-22T01:44:05.406Z,2.42
2023-04-22T01:46:34.559Z,2.05
2023-04-22T01:49:02.242Z,2.45
2023-04-22T01:51:31.304Z,2.75
2023-04-22T01:53:58.977Z,2.35
2023-04-22T01:56:26.551Z,2.20
2023-04-22T01:58:54.051Z,1.90
2023-04-22T02:01:21.695Z,2.20
2023-04-22T02:03:49.426Z,2.10
2023-04-22T02:06:17.129Z,1.52
2023-04-22T02:08:44.841Z,2.13
2023-04-22T02:11:13.834Z,2.08
2023-04-22T02:13:41.934Z,2.20
2023-04-22T02:16:09.721Z,2.17
2023-04-22T02:18:37.386Z,2.70
2023-04-22T02:21:04.961Z,1.95
2023-04-22T02:23:32.913Z,1.67
2023-04-22T02:26:00.759Z,1.92
2023-04-22T02:28:29.235Z,2.28
2023-04-22T02:30:58.262Z,2.40
2023-04-22T02:33:25.993Z,2.00
2023-04-22T02:35:54.248Z,2.45
2023-04-22T02:38:21.876Z,2.30
2023-04-22T02:40:49.550Z,2.47
2023-04-22T02:43:17.193Z,2.30
2023-04-22T02:45:45.429Z,2.03
2023-04-22T02:48:13.230Z,2.40
2023-04-22T02:50:40.915Z,2.88
2023-04-22T02:53:09.185Z,1.92
2023-04-22T02:55:36.797Z,2.67
2023-04-22T02:58:04.529Z,2.55
2023-04-22T03:00:32.307Z,2.88
2023-04-22T03:03:00.233Z,2.60
2023-04-22T03:05:33.934Z,2.35
2023-04-22T03:08:02.928Z,2.22
2023-04-22T03:10:32.485Z,2.47
2023-04-22T03:13:00.118Z,2.88
2023-04-22T03:15:27.777Z,2.97
2023-04-22T03:17:55.957Z,2.85
2023-04-22T03:20:24.491Z,2.47
2023-04-22T03:22:52.291Z,3.03
2023-04-22T03:25:20.441Z,2.60
2023-04-22T03:27:53.973Z,2.45
2023-04-22T03:30:21.963Z,2.65
2023-04-22T03:32:49.603Z,2.38
2023-04-22T03:35:27.311Z,2.28
2023-04-22T03:37:57.706Z,2.40
2023-04-22T03:40:30.581Z,3.50
2023-04-22T03:42:58.314Z,2.30
2023-04-22T03:45:26.654Z,2.53
2023-04-22T03:48:14.345Z,2.55
2023-04-22T03:50:47.461Z,2.50
2023-04-22T03:53:16.034Z,2.38
2023-04-22T03:55:44.533Z,2.28
2023-04-22T03:58:14.044Z,2.40
2023-04-22T04:00:41.652Z,2.40
2023-04-22T04:03:15.977Z,2.55
2023-04-22T04:05:45.602Z,2.03
2023-04-22T04:08:13.229Z,2.30
2023-04-22T04:10:41.940Z,2.10
2023-04-22T04:13:09.713Z,2.47
2023-04-22T04:15:47.343Z,2.30
2023-04-22T04:18:18.268Z,2.85
2023-04-22T04:20:46.936Z,2.75
2023-04-22T04:23:14.555Z,2.53
2023-04-22T04:25:43.758Z,2.65
2023-04-22T04:28:14.207Z,2.70
2023-04-22T04:30:42.363Z,2.20
2023-04-22T04:33:12.263Z,2.90
2023-04-22T04:35:43.623Z,5.07
2023-04-22T04:38:14.480Z,5.18
2023-04-22T04:40:43.652Z,4.05
2023-04-22T04:43:16.124Z,4.70
2023-04-22T04:46:04.098Z,5.40
2023-04-22T04:48:36.347Z,4.43
2023-04-22T04:51:08.376Z,4.55
2023-04-22T04:53:42.135Z,5.63
2023-04-22T04:56:09.848Z,5.38
2023-04-22T04:58:37.675Z,5.18
2023-04-22T05:01:12.231Z,4.70
2023-04-22T05:03:40.103Z,4.40
2023-04-22T05:06:08.276Z,4.45
2023-04-22T05:08:38.197Z,4.05
2023-04-22T05:11:27.461Z,3.63
2023-04-22T05:14:00.362Z,3.15
2023-04-22T05:16:33.238Z,3.90
2023-04-22T05:19:01.518Z,3.85
2023-04-22T05:21:29.188Z,4.15
2023-04-22T05:23:57.354Z,4.53
2023-04-22T05:26:26.018Z,3.60
2023-04-22T05:28:54.089Z,4.50
2023-04-22T05:31:22.853Z,3.97
2023-04-22T05:33:50.507Z,3.50
2023-04-22T05:36:18.893Z,3.90
2023-04-22T05:38:48.276Z,4.13
2023-04-22T05:41:16.874Z,7.70
2023-04-22T05:43:44.593Z,5.88
2023-04-22T05:46:16.688Z,5.28
2023-04-22T05:48:46.447Z,4.47
2023-04-22T05:51:32.960Z,4.75
2023-04-22T05:54:00.696Z,4.10
2023-04-22T05:56:28.311Z,4.10
2023-04-22T05:58:55.921Z,4.03
2023-04-22T06:01:25.285Z,3.47
2023-04-22T06:03:59.976Z,3.50
2023-04-22T06:06:31.110Z,3.60
2023-04-22T06:08:59.297Z,2.90
2023-04-22T06:11:28.127Z,2.70
2023-04-22T06:13:55.726Z,2.20
2023-04-22T06:16:23.596Z,2.67
2023-04-22T06:18:51.294Z,2.33
2023-04-22T06:21:20.262Z,2.30
2023-04-22T06:23:47.848Z,2.30
2023-04-22T06:26:15.679Z,2.30
2023-04-22T06:28:44.003Z,2.42
2023-04-22T06:31:18.891Z,2.33
2023-04-22T06:33:48.085Z,1.95
2023-04-22T06:36:15.888Z,1.88
2023-04-22T06:38:46.615Z,1.63
2023-04-22T06:41:37.124Z,2.17
2023-04-22T06:44:13.535Z,1.80
2023-04-22T06:46:51.285Z,1.52
2023-04-22T06:49:54.062Z,1.75
2023-04-22T06:52:27.312Z,1.95
2023-04-22T06:54:58.113Z,2.70
2023-04-22T06:57:25.834Z,2.78
2023-04-22T06:59:53.435Z,2.65
2023-04-22T07:02:22.399Z,2.08
2023-04-22T07:04:50.619Z,1.77
2023-04-22T07:07:18.877Z,2.05
2023-04-22T07:09:46.506Z,1.83
2023-04-22T07:12:14.170Z,2.10
2023-04-22T07:14:45.337Z,1.95
2023-04-22T07:17:13.144Z,1.90
2023-04-22T07:19:41.174Z,2.03
2023-04-22T07:22:09.364Z,2.05
2023-04-22T07:24:37.533Z,2.83
2023-04-22T07:27:05.154Z,2.58
2023-04-22T07:29:32.815Z,1.92
2023-04-22T07:32:00.457Z,1.88
2023-04-22T07:34:28.077Z,1.77
2023-04-22T07:36:55.707Z,1.33
2023-04-22T07:39:23.297Z,1.60
2023-04-22T07:41:51.345Z,2.53
2023-04-22T07:44:21.657Z,2.20
2023-04-22T07:46:50.336Z,1.58
2023-04-22T07:49:17.965Z,1.90
2023-04-22T07:51:45.851Z,1.55
2023-04-22T07:54:13.436Z,1.80
2023-04-22T07:56:41.203Z,1.73
2023-04-22T07:59:08.751Z,1.35
2023-04-22T08:01:36.441Z,1.30
2023-04-22T08:04:04.154Z,1.17
2023-04-22T08:06:32.048Z,1.10
2023-04-22T08:08:59.601Z,1.42
2023-04-22T08:11:27.218Z,1.50
2023-04-22T08:13:54.833Z,1.27
2023-04-22T08:16:22.529Z,1.33
2023-04-22T08:18:52.074Z,1.10
2023-04-22T08:21:19.609Z,1.63
2023-04-22T08:23:47.211Z,1.42
2023-04-22T08:26:16.350Z,1.23
2023-04-22T08:28:44.019Z,1.00
2023-04-22T08:31:13.031Z,1.77
2023-04-22T08:33:41.866Z,1.65
2023-04-22T08:36:11.137Z,1.20
2023-04-22T08:38:38.742Z,1.10
2023-04-22T08:41:07.303Z,1.35
2023-04-22T08:43:35.585Z,1.13
2023-04-22T08:46:03.215Z,0.93
2023-04-22T08:48:32.198Z,1.02
2023-04-22T08:51:00.349Z,1.08
2023-04-22T08:53:28.012Z,1.30
2023-04-22T08:55:57.444Z,1.13
2023-04-22T08:58:25.607Z,1.20
2023-04-22T09:00:53.311Z,0.80
2023-04-22T09:03:22.528Z,1.20
2023-04-22T09:05:52.600Z,1.27
2023-04-22T09:08:20.812Z,0.75
2023-04-22T09:10:48.711Z,0.95
2023-04-22T09:13:17.771Z,0.90
2023-04-22T09:15:46.324Z,0.80
2023-04-22T09:18:19.111Z,1.17
2023-04-22T09:20:48.574Z,1.00
2023-04-22T09:23:16.414Z,1.02
2023-04-22T09:25:45.481Z,0.95
2023-04-22T09:28:18.442Z,0.57
2023-04-22T09:30:46.781Z,0.85
2023-04-22T09:33:14.851Z,1.10
2023-04-22T09:35:43.441Z,2.13
2023-04-22T09:38:12.828Z,1.35
2023-04-22T09:40:44.387Z,1.00
2023-04-22T09:43:12.738Z,0.80
2023-04-22T09:45:43.082Z,0.90
2023-04-22T09:48:18.899Z,0.73
2023-04-22T09:50:48.975Z,0.80
2023-04-22T09:53:18.478Z,0.70
2023-04-22T09:55:48.710Z,0.60
2023-04-22T09:58:19.034Z,0.95
2023-04-22T10:00:58.107Z,0.93
2023-04-22T10:03:25.867Z,1.00
2023-04-22T10:05:53.534Z,0.75
2023-04-22T10:08:21.110Z,0.63
2023-04-22T10:10:48.698Z,0.73
2023-04-22T10:13:16.306Z,0.60
2023-04-22T10:15:52.912Z,0.57
2023-04-22T10:18:24.560Z,0.95
2023-04-22T10:20:54.308Z,0.40
2023-04-22T10:23:24.288Z,0.50
2023-04-22T10:25:56.071Z,0.57
2023-04-22T10:28:27.601Z,0.90
2023-04-22T10:30:55.530Z,0.70
2023-04-22T10:33:23.995Z,0.70
2023-04-22T10:36:11.403Z,0.95
2023-04-22T10:38:41.333Z,0.80
2023-04-22T10:41:15.587Z,0.75
2023-04-22T10:44:08.479Z,0.50
2023-04-22T10:46:40.157Z,0.52
2023-04-22T10:49:13.704Z,1.15
2023-04-22T10:51:46.493Z,0.63
2023-04-22T10:54:28.667Z,0.47
2023-04-22T10:57:11.322Z,0.57
2023-04-22T10:59:47.232Z,0.45
2023-04-22T11:02:17.045Z,0.52
2023-04-22T11:04:44.727Z,0.60
2023-04-22T11:07:27.277Z,0.55
2023-04-22T11:10:07.377Z,0.55
2023-04-22T11:12:43.717Z,0.70
2023-04-22T11:15:22.375Z,0.70
2023-04-22T11:17:54.723Z,0.50
2023-04-22T11:20:22.947Z,0.85
2023-04-22T11:22:57.965Z,0.50
2023-04-22T11:25:27.149Z,0.65
2023-04-22T11:27:55.280Z,0.60
2023-04-22T11:30:25.429Z,0.50
2023-04-22T11:32:55.091Z,0.38
2023-04-22T11:35:25.330Z,0.32
2023-04-22T11:37:57.546Z,0.50
2023-04-22T11:40:40.662Z,0.60
2023-04-22T11:43:10.697Z,0.60
2023-04-22T11:45:39.345Z,0.70
2023-04-22T11:48:09.079Z,0.38
2023-04-22T11:50:39.671Z,0.52
2023-04-22T11:53:18.871Z,0.50
2023-04-22T11:55:51.126Z,0.30
2023-04-22T11:58:24.780Z,0.40
2023-04-22T12:00:54.787Z,0.50
2023-04-22T12:03:33.025Z,0.70
2023-04-22T12:06:03.924Z,0.80
2023-04-22T12:08:42.386Z,0.47
2023-04-22T12:11:11.411Z,0.75
2023-04-22T12:13:42.124Z,0.63
2023-04-22T12:16:20.015Z,0.63
2023-04-22T12:18:53.485Z,0.68
2023-04-22T12:21:28.338Z,0.70
2023-04-22T12:23:59.363Z,1.13
2023-04-22T12:26:28.346Z,0.98
2023-04-22T12:28:58.826Z,0.70
2023-04-22T12:31:27.707Z,0.70
2023-04-22T12:33:56.337Z,0.60
2023-04-22T12:36:25.052Z,1.00
2023-04-22T12:38:53.217Z,1.00
2023-04-22T12:41:20.900Z,1.20
2023-04-22T12:43:48.474Z,0.93
2023-04-22T12:46:16.730Z,1.02
2023-04-22T12:48:44.261Z,0.95
2023-04-22T12:51:11.829Z,1.00
2023-04-22T12:53:39.410Z,0.82
2023-04-22T12:56:07.020Z,0.93
2023-04-22T12:58:34.623Z,1.25
2023-04-22T13:01:02.233Z,1.20
2023-04-22T13:03:30.045Z,1.38
2023-04-22T13:05:58.050Z,1.50
2023-04-22T13:08:26.013Z,1.30
2023-04-22T13:10:53.812Z,0.90
2023-04-22T13:13:21.339Z,1.02
2023-04-22T13:15:54.093Z,0.93
2023-04-22T13:18:23.431Z,0.90
2023-04-22T13:20:51.589Z,0.77
2023-04-22T13:23:21.615Z,0.88
2023-04-22T13:25:50.411Z,0.60
2023-04-22T13:28:18.069Z,0.80
2023-04-22T13:30:46.063Z,0.88
2023-04-22T13:33:13.587Z,0.60
2023-04-22T13:35:41.102Z,0.80
2023-04-22T13:38:08.943Z,0.88
2023-04-22T13:40:36.473Z,0.68
2023-04-22T13:43:04.371Z,0.80
2023-04-22T13:45:32.237Z,0.60
2023-04-22T13:47:59.823Z,0.60
2023-04-22T13:50:27.440Z,0.63
2023-04-22T13:52:55.213Z,0.70
2023-04-22T13:55:22.799Z,1.10
2023-04-22T13:57:52.001Z,0.98
2023-04-22T14:00:20.847Z,0.75
2023-04-22T14:02:48.988Z,1.20
2023-04-22T14:05:17.040Z,0.57
2023-04-22T14:07:44.669Z,0.80
2023-04-22T14:10:13.812Z,0.90
2023-04-22T14:12:41.674Z,0.45
2023-04-22T14:15:11.260Z,0.43
2023-04-22T14:17:39.887Z,0.60
2023-04-22T14:20:08.900Z,0.52
2023-04-22T14:22:36.506Z,0.68
2023-04-22T14:25:04.500Z,0.90
2023-04-22T14:27:32.786Z,0.50
2023-04-22T14:30:01.232Z,1.00
2023-04-22T14:32:29.430Z,0.73
2023-04-22T14:34:57.249Z,0.80
2023-04-22T14:37:24.918Z,1.05
2023-04-22T14:39:52.534Z,0.93
2023-04-22T14:42:20.892Z,0.52
2023-04-22T14:44:50.071Z,1.00
2023-04-22T14:47:18.448Z,0.70
2023-04-22T14:49:46.148Z,1.20
2023-04-22T14:52:16.896Z,1.02
2023-04-22T14:54:51.274Z,0.90
2023-04-22T14:57:19.831Z,0.90
2023-04-22T14:59:47.934Z,0.88
2023-04-22T15:02:16.089Z,0.50
2023-04-22T15:04:44.682Z,0.95
2023-04-22T15:07:12.354Z,0.80
2023-04-22T15:09:40.276Z,0.75
2023-04-22T15:12:08.244Z,0.80
2023-04-22T15:14:36.690Z,1.02
2023-04-22T15:17:05.445Z,1.05
2023-04-22T15:19:33.159Z,1.50
2023-04-22T15:22:00.680Z,1.48
2023-04-22T15:24:28.302Z,1.42
2023-04-22T15:26:56.820Z,0.80
2023-04-22T15:29:24.837Z,1.00
2023-04-22T15:31:54.533Z,1.08
2023-04-22T15:34:22.673Z,1.00
2023-04-22T15:36:50.742Z,0.90
2023-04-22T15:39:18.415Z,0.93
2023-04-22T15:41:46.622Z,1.05
2023-04-22T15:44:16.234Z,0.90
2023-04-22T15:46:46.474Z,1.08
2023-04-22T15:49:15.061Z,0.90
2023-04-22T15:51:42.690Z,0.80
2023-04-22T15:54:10.482Z,0.80
2023-04-22T15:56:38.120Z,0.80
2023-04-22T15:59:06.043Z,0.93
2023-04-22T16:01:33.668Z,0.82
2023-04-22T16:04:01.660Z,0.90
2023-04-22T16:06:29.557Z,1.00
2023-04-22T16:08:57.255Z,0.82
2023-04-22T16:11:24.820Z,1.00
2023-04-22T16:13:52.575Z,1.40
2023-04-22T16:16:20.093Z,1.25
2023-04-22T16:18:48.192Z,1.10
2023-04-22T16:21:15.762Z,1.05
2023-04-22T16:23:46.289Z,1.55
2023-04-22T16:26:13.910Z,1.35
2023-04-22T16:28:41.573Z,4.13
2023-04-22T16:31:10.650Z,1.13
2023-04-22T16:33:38.592Z,0.75
2023-04-22T16:36:08.604Z,0.90
2023-04-22T16:38:36.250Z,0.70
2023-04-22T16:41:04.072Z,0.60
2023-04-22T16:43:31.720Z,0.57
2023-04-22T16:45:59.407Z,0.63
2023-04-22T16:48:27.261Z,0.55
2023-04-22T16:50:54.984Z,0.70
2023-04-22T16:53:22.537Z,0.73
2023-04-22T16:55:50.100Z,0.88
2023-04-22T16:58:17.605Z,0.60
2023-04-22T17:00:47.519Z,0.90
2023-04-22T17:03:16.280Z,0.85
2023-04-22T17:05:44.147Z,0.68
2023-04-22T17:08:11.796Z,0.85
2023-04-22T17:10:45.031Z,0.70
2023-04-22T17:13:16.136Z,0.63
2023-04-22T17:15:43.663Z,0.80
2023-04-22T17:18:11.418Z,0.70
2023-04-22T17:20:39.117Z,0.82
2023-04-22T17:23:06.855Z,0.63
2023-04-22T17:25:34.312Z,0.73
2023-04-22T17:28:05.474Z,0.47
2023-04-22T17:30:33.549Z,1.00
2023-04-22T17:33:01.188Z,3.03
2023-04-22T17:35:28.785Z,1.95
2023-04-22T17:37:57.828Z,1.13
2023-04-22T17:40:25.476Z,1.13
2023-04-22T17:42:53.099Z,0.73
2023-04-22T17:45:20.825Z,0.80
2023-04-22T17:47:49.317Z,1.10
2023-04-22T17:50:16.999Z,0.90
2023-04-22T17:52:44.491Z,0.88
2023-04-22T17:55:12.230Z,0.77
2023-04-22T17:57:39.813Z,0.85
2023-04-22T18:00:08.480Z,1.02
2023-04-22T18:02:36.305Z,1.40
2023-04-22T18:05:05.036Z,1.60
2023-04-22T18:07:32.601Z,1.38
2023-04-22T18:10:00.383Z,0.88
2023-04-22T18:12:30.678Z,1.23
2023-04-22T18:14:58.679Z,1.00
2023-04-22T18:17:27.062Z,1.40
2023-04-22T18:20:09.595Z,5.07
2023-04-22T18:22:43.160Z,4.97
2023-04-22T18:25:11.129Z,2.22
2023-04-22T18:27:38.724Z,2.50
2023-04-22T18:30:07.223Z,2.80
2023-04-22T18:32:35.849Z,1.33
2023-04-22T18:35:03.568Z,1.08
2023-04-22T18:37:32.633Z,1.25
2023-04-22T18:40:00.403Z,1.73
2023-04-22T18:42:28.032Z,1.55
2023-04-22T18:44:55.931Z,1.45
2023-04-22T18:47:23.619Z,1.40
2023-04-22T18:49:51.272Z,1.45
2023-04-22T18:52:19.215Z,2.08
2023-04-22T18:54:46.895Z,1.40
2023-04-22T18:57:14.505Z,1.42
2023-04-22T18:59:44.625Z,1.83
2023-04-22T19:02:13.835Z,1.60
2023-04-22T19:04:41.965Z,1.30
2023-04-22T19:07:09.859Z,1.33
2023-04-22T19:09:37.359Z,1.00
2023-04-22T19:12:06.159Z,1.08
2023-04-22T19:14:33.737Z,1.40
2023-04-22T19:17:01.264Z,1.08
2023-04-22T19:19:28.888Z,1.02
2023-04-22T19:21:56.467Z,1.20
2023-04-22T19:24:23.994Z,1.00
2023-04-22T19:26:52.357Z,1.08
2023-04-22T19:29:19.864Z,1.35
2023-04-22T19:31:47.499Z,1.10
2023-04-22T19:34:15.100Z,1.60
2023-04-22T19:36:42.624Z,0.70
2023-04-22T19:39:10.290Z,1.15
2023-04-22T19:41:38.174Z,1.23
2023-04-22T19:44:05.734Z,1.27
2023-04-22T19:46:33.281Z,1.30
2023-04-22T19:49:01.106Z,1.42
2023-04-22T19:51:28.803Z,1.30
2023-04-22T19:53:57.898Z,1.50
2023-04-22T19:56:26.487Z,1.13
2023-04-22T19:58:55.213Z,1.50
2023-04-22T20:01:22.977Z,5.18
2023-04-22T20:03:50.992Z,3.15
2023-04-22T20:06:19.385Z,2.70
2023-04-22T20:08:48.051Z,1.58
2023-04-22T20:11:16.996Z,1.63
2023-04-22T20:13:46.173Z,1.38
2023-04-22T20:16:15.411Z,1.52
2023-04-22T20:18:43.050Z,1.42
2023-04-22T20:21:10.904Z,1.20
2023-04-22T20:23:41.048Z,1.05
2023-04-22T20:26:09.373Z,1.20
2023-04-22T20:28:45.274Z,1.50
2023-04-22T20:33:40.972Z,1.30
2023-04-22T20:36:08.746Z,1.58
2023-04-22T20:38:37.647Z,1.55
2023-04-22T20:41:07.013Z,1.58
2023-04-22T20:43:37.299Z,1.33
2023-04-22T20:46:05.339Z,1.20
2023-04-22T20:48:32.935Z,1.10
2023-04-22T20:51:00.643Z,1.50
2023-04-22T20:53:28.310Z,2.03
2023-04-22T20:55:55.810Z,1.77
2023-04-22T20:58:23.595Z,1.50
2023-04-22T21:00:51.161Z,1.65
2023-04-22T21:03:19.254Z,1.40
2023-04-22T21:05:47.010Z,1.30
2023-04-22T21:08:23.257Z,1.45
2023-04-22T21:10:55.034Z,1.63
2023-04-22T21:13:23.624Z,1.52
2023-04-22T21:16:04.083Z,1.60
2023-04-22T21:18:33.613Z,1.58
2023-04-22T21:21:04.778Z,1.30
2023-04-22T21:23:32.988Z,1.30
2023-04-22T21:26:03.618Z,1.40
2023-04-22T21:28:31.508Z,1.63
2023-04-22T21:30:59.416Z,1.73
2023-04-22T21:33:27.056Z,1.45
2023-04-22T21:35:54.694Z,1.90
2023-04-22T21:38:22.236Z,1.50
2023-04-22T21:40:49.935Z,1.75
2023-04-22T21:43:17.516Z,1.90
2023-04-22T21:45:45.198Z,2.08
2023-04-22T21:48:12.829Z,1.90
2023-04-22T21:50:40.438Z,1.55
2023-04-22T21:53:08.084Z,1.58
2023-04-22T21:55:35.672Z,1.65
2023-04-22T21:58:03.306Z,1.50
2023-04-22T22:00:31.697Z,1.60
2023-04-22T22:02:59.264Z,1.60
2023-04-22T22:05:26.999Z,1.70
2023-04-22T22:07:55.299Z,2.05
2023-04-22T22:10:24.020Z,1.90
2023-04-22T22:12:51.668Z,1.63
2023-04-22T22:15:19.221Z,2.00
2023-04-22T22:17:46.850Z,1.67
2023-04-22T22:20:20.221Z,2.08
2023-04-22T22:22:48.344Z,1.88
2023-04-22T22:25:16.623Z,1.90
2023-04-22T22:27:49.209Z,1.95
2023-04-22T22:30:18.783Z,2.10
2023-04-22T22:32:46.758Z,1.85
2023-04-22T22:35:14.614Z,1.85
2023-04-22T22:37:42.303Z,1.73
2023-04-22T22:40:10.817Z,2.00
2023-04-22T22:42:38.321Z,1.88
2023-04-22T22:45:06.765Z,1.75
2023-04-22T22:47:34.426Z,2.33
2023-04-22T22:50:02.099Z,2.08
2023-04-22T22:52:29.686Z,1.80
2023-04-22T22:54:57.386Z,1.52
2023-04-22T22:57:24.849Z,2.15
2023-04-22T22:59:52.378Z,1.95
2023-04-22T23:02:20.079Z,1.63
2023-04-22T23:04:47.862Z,1.67
2023-04-22T23:07:16.638Z,1.55
2023-04-22T23:09:44.212Z,1.70
2023-04-22T23:12:11.836Z,2.33
2023-04-22T23:14:39.584Z,1.73
2023-04-22T23:17:07.483Z,1.55
2023-04-22T23:19:35.212Z,1.70
2023-04-22T23:22:04.971Z,1.98
2023-04-22T23:24:33.588Z,1.90
2023-04-22T23:27:01.756Z,1.70
2023-04-22T23:29:29.781Z,1.63
2023-04-22T23:32:01.955Z,1.92
2023-04-22T23:34:31.743Z,1.98
2023-04-22T23:37:00.340Z,1.48
2023-04-22T23:39:27.886Z,1.73
2023-04-22T23:41:55.460Z,1.80
2023-04-22T23:44:23.492Z,1.30
2023-04-22T23:46:51.164Z,2.25
2023-04-22T23:49:18.708Z,1.77
2023-04-22T23:51:46.550Z,2.08
2023-04-22T23:54:15.911Z,1.60
2023-04-22T23:56:44.270Z,2.30
2023-04-22T23:59:12.097Z,1.60
